Time;durP1;ratioP1;P1;durP2;ratioP2;P2;SDS_P1;SDS_P2;PMS_P1;PMS_P2;Temp;Humidity;BMP_temperature;BMP_pressure;BME280_temperature;BME280_humidity;BME280_pressure;Samples;Min_cycle;Max_cycle;Signal;HPM_P1;HPM_P2
2023/12/04 00:01:17;;;;;;;7.60;4.80;;;;;;;-3.73;87.06;99970.12;106052;1257;70268;-76
2023/12/04 00:03:45;;;;;;;8.00;5.40;;;;;;;-3.68;86.94;99976.43;106098;1254;71435;-75
2023/12/04 00:06:13;;;;;;;8.90;5.50;;;;;;;-3.64;86.77;99978.14;105995;1256;60619;-75
2023/12/04 00:08:41;;;;;;;9.20;5.00;;;;;;;-3.68;86.97;99979.53;105833;1256;60452;-76
2023/12/04 00:11:08;;;;;;;9.10;5.20;;;;;;;-3.73;87.26;99982.02;105945;1256;71650;-74
2023/12/04 00:13:36;;;;;;;9.80;5.40;;;;;;;-3.78;87.31;99982.26;106017;1254;68716;-75
2023/12/04 00:16:04;;;;;;;8.40;5.00;;;;;;;-3.71;87.15;99985.25;105780;1256;72685;-76
2023/12/04 00:18:32;;;;;;;10.10;6.30;;;;;;;-3.66;86.81;99990.52;105868;1256;60399;-77
2023/12/04 00:21:00;;;;;;;10.10;6.10;;;;;;;-3.71;86.96;99986.43;106024;1256;60605;-74
2023/12/04 00:23:27;;;;;;;10.60;5.90;;;;;;;-3.78;87.21;99990.58;105628;1256;73864;-75
2023/12/04 00:25:55;;;;;;;8.90;5.60;;;;;;;-3.87;87.24;99997.03;105769;1259;69327;-76
2023/12/04 00:28:23;;;;;;;9.10;5.50;;;;;;;-3.96;87.25;100001.08;105836;1256;71295;-75
2023/12/04 00:30:51;;;;;;;10.30;5.90;;;;;;;-3.93;86.94;100005.83;105835;1259;61744;-77
2023/12/04 00:33:19;;;;;;;8.10;5.30;;;;;;;-3.92;86.80;100006.09;105805;1255;60548;-75
2023/12/04 00:35:46;;;;;;;11.70;6.40;;;;;;;-3.99;87.12;100008.84;105985;1259;74185;-77
2023/12/04 00:38:14;;;;;;;12.20;6.90;;;;;;;-4.06;87.54;100014.70;106198;1256;71252;-76
2023/12/04 00:40:41;;;;;;;10.70;6.50;;;;;;;-4.11;87.84;100012.65;106574;1257;71241;-73
2023/12/04 00:43:09;;;;;;;11.00;5.90;;;;;;;-4.08;87.90;100019.97;107675;1260;60364;-77
2023/12/04 00:45:37;;;;;;;9.90;5.70;;;;;;;-3.97;87.64;100024.80;106378;1258;60676;-76
2023/12/04 00:48:04;;;;;;;11.20;5.80;;;;;;;-3.93;87.80;100023.63;106015;1255;74236;-76
2023/12/04 00:50:32;;;;;;;11.10;6.60;;;;;;;-3.96;88.02;100024.25;106101;1257;69311;-78
2023/12/04 00:52:59;;;;;;;10.50;6.20;;;;;;;-3.99;88.37;100029.79;106229;1258;71647;-77
2023/12/04 00:55:27;;;;;;;11.10;6.10;;;;;;;-4.01;88.50;100029.16;106283;1256;60545;-78
2023/12/04 00:57:55;;;;;;;12.80;7.30;;;;;;;-3.93;88.27;100022.42;106504;1255;60618;-78
2023/12/04 01:00:23;;;;;;;9.20;5.80;;;;;;;-3.84;88.11;100029.09;107011;1256;72349;-77
2023/12/04 01:02:51;;;;;;;13.20;6.70;;;;;;;-3.85;88.07;100031.40;106624;1258;71288;-75
2023/12/04 01:05:19;;;;;;;10.80;6.40;;;;;;;-3.89;88.31;100030.16;106431;1254;72708;-74
2023/12/04 01:07:46;;;;;;;12.60;7.30;;;;;;;-3.92;88.30;100030.50;106544;1256;60443;-76
2023/12/04 01:10:14;;;;;;;11.70;5.90;;;;;;;-3.89;88.02;100027.60;106616;1257;60443;-78
2023/12/04 01:12:41;;;;;;;10.50;6.00;;;;;;;-3.80;87.59;100022.70;107747;1254;73896;-77
2023/12/04 01:15:09;;;;;;;10.90;6.00;;;;;;;-3.85;87.39;100026.02;107842;1256;70456;-77
2023/12/04 01:17:37;;;;;;;10.90;6.80;;;;;;;-3.95;87.54;100031.34;107176;1255;71721;-78
2023/12/04 01:20:07;;;;;;;9.90;6.30;;;;;;;-4.04;87.57;100030.32;106398;1259;60403;-77
2023/12/04 01:22:34;;;;;;;11.00;6.20;;;;;;;-4.05;87.41;100031.41;106363;1254;60803;-79
2023/12/04 01:25:03;;;;;;;9.90;5.90;;;;;;;-4.02;87.34;100034.42;106026;1255;73887;-79
2023/12/04 01:27:31;;;;;;;10.20;6.00;;;;;;;-4.10;87.40;100041.35;106184;1254;70295;-76
2023/12/04 01:29:58;;;;;;;15.50;7.00;;;;;;;-4.21;87.57;100041.80;105691;1254;71204;-79
2023/12/04 01:32:26;;;;;;;12.70;6.60;;;;;;;-4.30;87.49;100047.73;105791;1255;60505;-77
2023/12/04 01:34:54;;;;;;;10.90;6.50;;;;;;;-4.27;87.49;100048.14;106282;1254;60454;-77
2023/12/04 01:37:21;;;;;;;11.70;6.80;;;;;;;-4.29;87.57;100059.98;105961;1256;71313;-77
2023/12/04 01:39:49;;;;;;;11.80;6.50;;;;;;;-4.38;87.77;100062.92;106189;1254;70531;-78
2023/12/04 01:42:16;;;;;;;14.00;6.80;;;;;;;-4.46;88.08;100067.59;105961;1258;71309;-76
2023/12/04 01:44:44;;;;;;;11.20;6.80;;;;;;;-4.49;88.38;100072.27;105706;1261;61061;-73
2023/12/04 01:47:11;;;;;;;12.00;6.90;;;;;;;-4.39;88.38;100073.55;105733;1259;60555;-75
2023/12/04 01:49:39;;;;;;;11.60;6.50;;;;;;;-4.30;88.28;100072.29;105634;1260;74115;-77
2023/12/04 01:52:07;;;;;;;15.90;7.00;;;;;;;-4.31;88.37;100078.72;105593;1256;70555;-75
2023/12/04 01:54:34;;;;;;;13.80;7.70;;;;;;;-4.35;88.57;100080.27;105794;1260;73054;-75
2023/12/04 01:57:02;;;;;;;14.10;8.00;;;;;;;-4.38;88.88;100081.27;105548;1256;60985;-77
2023/12/04 01:59:30;;;;;;;13.50;8.40;;;;;;;-4.37;89.10;100083.48;105599;1254;60594;-75
2023/12/04 02:01:57;;;;;;;11.20;7.00;;;;;;;-4.27;88.72;100089.61;105716;1258;73727;-77
2023/12/04 02:04:25;;;;;;;11.20;7.50;;;;;;;-4.14;88.45;100092.71;105815;1255;69926;-75
2023/12/04 02:06:53;;;;;;;13.20;7.30;;;;;;;-4.15;88.52;100096.02;105571;1256;72478;-75
2023/12/04 02:09:21;;;;;;;11.50;6.90;;;;;;;-4.17;88.81;100093.69;105572;1256;60383;-75
2023/12/04 02:11:48;;;;;;;12.80;7.10;;;;;;;-4.19;88.78;100094.65;105579;1258;60420;-75
2023/12/04 02:14:16;;;;;;;10.10;6.00;;;;;;;-4.14;88.73;100090.62;106672;1256;74474;-73
2023/12/04 02:16:43;;;;;;;10.20;6.50;;;;;;;-4.00;88.38;100087.79;106440;1256;68841;-75
2023/12/04 02:19:14;;;;;;;11.50;7.50;;;;;;;-3.96;88.23;100086.04;105547;1256;72972;-74
2023/12/04 02:21:41;;;;;;;12.80;7.60;;;;;;;-3.97;88.32;100081.93;105574;1256;60435;-73
2023/12/04 02:24:09;;;;;;;10.60;6.60;;;;;;;-4.00;87.82;100080.70;105558;1256;60391;-74
2023/12/04 02:26:45;;;;;;;13.00;7.70;;;;;;;-4.04;87.65;100081.56;105583;1256;72591;-77
2023/12/04 02:29:15;;;;;;;11.70;7.20;;;;;;;-3.96;87.19;100088.47;105622;1256;70536;-75
2023/12/04 02:31:43;;;;;;;13.90;7.70;;;;;;;-3.95;87.01;100097.77;105718;1255;71422;-75
2023/12/04 02:34:10;;;;;;;14.10;8.10;;;;;;;-4.02;87.07;100104.48;105513;1256;60511;-77
2023/12/04 02:36:38;;;;;;;11.20;7.10;;;;;;;-4.10;87.45;100106.38;105549;1255;60413;-75
2023/12/04 02:39:05;;;;;;;13.60;7.50;;;;;;;-4.14;87.82;100114.68;105484;1256;73757;-76
2023/12/04 02:41:33;;;;;;;15.50;7.50;;;;;;;-4.04;87.93;100119.11;105677;1256;69969;-75
2023/12/04 02:44:00;;;;;;;11.00;6.80;;;;;;;-3.94;87.83;100112.96;105784;1256;70251;-75
2023/12/04 02:46:28;;;;;;;13.40;7.80;;;;;;;-3.94;88.05;100118.15;105819;1254;60547;-76
2023/12/04 02:48:56;;;;;;;12.20;7.40;;;;;;;-3.96;88.36;100120.65;105473;1254;60491;-76
2023/12/04 02:51:26;;;;;;;12.20;7.70;;;;;;;-3.99;88.41;100129.60;105604;1255;72562;-76
2023/12/04 02:53:54;;;;;;;13.70;7.40;;;;;;;-3.96;88.34;100128.11;105719;1256;68022;-74
2023/12/04 02:56:21;;;;;;;12.10;7.40;;;;;;;-3.82;88.01;100127.81;105625;1256;71378;-77
2023/12/04 02:58:49;;;;;;;12.80;7.00;;;;;;;-3.80;87.72;100131.20;105238;1256;60465;-76
2023/12/04 03:01:16;;;;;;;11.10;7.40;;;;;;;-3.84;87.96;100134.31;105711;1258;59728;-76
2023/12/04 03:03:44;;;;;;;12.90;7.20;;;;;;;-3.85;88.23;100137.14;105523;1254;72619;-76
2023/12/04 03:06:12;;;;;;;16.30;7.80;;;;;;;-3.86;88.33;100145.28;105513;1256;69939;-75
2023/12/04 03:08:39;;;;;;;13.30;7.80;;;;;;;-3.82;87.95;100149.27;105650;1254;72659;-73
2023/12/04 03:11:07;;;;;;;11.70;6.70;;;;;;;-3.71;87.35;100141.89;105791;1256;60380;-75
2023/12/04 03:13:34;;;;;;;12.20;7.60;;;;;;;-3.69;87.29;100139.06;106116;1258;60362;-72
2023/12/04 03:16:02;;;;;;;12.30;7.60;;;;;;;-3.72;87.39;100135.20;106055;1254;73831;-74
2023/12/04 03:18:30;;;;;;;13.50;8.70;;;;;;;-3.77;87.41;100136.27;105992;1255;70860;-74
2023/12/04 03:20:57;;;;;;;12.90;8.10;;;;;;;-3.82;87.18;100143.06;105605;1258;71379;-75
2023/12/04 03:23:25;;;;;;;12.80;8.10;;;;;;;-3.85;87.26;100148.73;105655;1258;60474;-73
2023/12/04 03:25:52;;;;;;;11.80;7.30;;;;;;;-3.75;87.09;100147.42;105618;1258;60335;-76
2023/12/04 03:28:20;;;;;;;12.90;8.10;;;;;;;-3.64;86.57;100155.96;105734;1260;73868;-76
2023/12/04 03:30:47;;;;;;;13.20;8.30;;;;;;;-3.64;86.87;100159.93;105549;1255;70007;-75
2023/12/04 03:33:15;;;;;;;13.10;8.10;;;;;;;-3.68;86.89;100162.18;105603;1257;71436;-75
2023/12/04 03:35:43;;;;;;;14.90;9.30;;;;;;;-3.74;86.77;100164.34;105738;1254;60461;-75
2023/12/04 03:38:11;;;;;;;14.80;8.70;;;;;;;-3.82;86.54;100163.99;105559;1256;60605;-75
2023/12/04 03:40:38;;;;;;;15.10;8.60;;;;;;;-3.90;86.38;100160.21;105631;1255;74096;-73
2023/12/04 03:43:06;;;;;;;15.10;9.50;;;;;;;-3.86;86.27;100159.33;105687;1260;68588;-76
2023/12/04 03:45:33;;;;;;;15.70;9.50;;;;;;;-3.81;86.25;100167.23;105914;1256;71370;-74
2023/12/04 03:48:02;;;;;;;14.90;9.40;;;;;;;-3.85;86.35;100169.85;108301;1255;59089;-75
2023/12/04 03:50:30;;;;;;;14.70;8.60;;;;;;;-3.93;86.40;100170.38;105960;1256;60510;-76
2023/12/04 03:52:57;;;;;;;15.90;10.30;;;;;;;-4.02;86.54;100171.09;105742;1255;73935;-77
2023/12/04 03:55:25;;;;;;;16.70;9.80;;;;;;;-4.07;86.87;100173.39;105880;1258;70503;-78
2023/12/04 03:57:53;;;;;;;16.00;10.60;;;;;;;-4.03;86.62;100178.23;105745;1258;71146;-76
2023/12/04 04:00:21;;;;;;;19.50;11.80;;;;;;;-3.96;86.46;100182.23;105681;1257;59595;-77
2023/12/04 04:02:48;;;;;;;17.90;10.80;;;;;;;-4.00;86.51;100185.36;105646;1254;60533;-76
2023/12/04 04:05:16;;;;;;;17.00;10.00;;;;;;;-4.08;86.74;100188.48;105699;1256;73905;-78
2023/12/04 04:07:43;;;;;;;15.60;9.20;;;;;;;-4.16;86.99;100187.41;105593;1260;69382;-76
2023/12/04 04:10:11;;;;;;;13.80;8.10;;;;;;;-4.22;87.26;100186.11;105646;1260;70832;-76
2023/12/04 04:12:39;;;;;;;14.40;8.20;;;;;;;-4.21;87.04;100181.91;105559;1258;60370;-77
2023/12/04 04:15:07;;;;;;;16.00;8.80;;;;;;;-4.16;86.95;100188.25;105569;1260;60485;-75
2023/12/04 04:17:35;;;;;;;13.30;7.80;;;;;;;-4.21;87.05;100196.59;105516;1260;73807;-77
2023/12/04 04:20:02;;;;;;;12.30;7.70;;;;;;;-4.29;87.33;100197.81;105580;1256;69972;-78
2023/12/04 04:22:34;;;;;;;13.10;7.20;;;;;;;-4.39;87.38;100199.92;105637;1256;72608;-78
2023/12/04 04:25:01;;;;;;;11.70;7.00;;;;;;;-4.46;87.74;100196.41;105607;1256;62830;-77
2023/12/04 04:27:29;;;;;;;15.60;8.80;;;;;;;-4.43;87.68;100194.55;105567;1255;60494;-77
2023/12/04 04:29:57;;;;;;;16.50;8.90;;;;;;;-4.38;87.70;100193.81;105682;1254;74184;-75
2023/12/04 04:32:25;;;;;;;13.20;8.80;;;;;;;-4.41;87.86;100197.77;105843;1255;70141;-75
2023/12/04 04:34:52;;;;;;;14.20;7.70;;;;;;;-4.46;88.45;100205.91;105777;1258;72619;-75
2023/12/04 04:37:20;;;;;;;16.00;9.60;;;;;;;-4.48;88.99;100211.73;105666;1255;60439;-75
2023/12/04 04:39:48;;;;;;;15.80;8.70;;;;;;;-4.46;89.19;100213.37;105615;1255;60603;-74
2023/12/04 04:42:15;;;;;;;15.90;8.60;;;;;;;-4.35;88.82;100213.25;105772;1258;73898;-74
2023/12/04 04:44:43;;;;;;;15.00;8.80;;;;;;;-4.29;88.76;100218.89;105579;1254;67895;-73
2023/12/04 04:47:10;;;;;;;14.00;8.80;;;;;;;-4.33;88.98;100226.52;105826;1254;71840;-74
2023/12/04 04:49:38;;;;;;;14.30;8.10;;;;;;;-4.39;89.23;100230.02;105759;1258;60432;-72
2023/12/04 04:52:05;;;;;;;12.40;8.20;;;;;;;-4.43;89.39;100234.14;105672;1253;60465;-74
2023/12/04 04:54:33;;;;;;;14.70;8.70;;;;;;;-4.33;89.08;100243.45;105525;1254;72761;-73
2023/12/04 04:57:01;;;;;;;26.60;15.60;;;;;;;-4.27;88.88;100239.93;105660;1253;70175;-75
2023/12/04 04:59:30;;;;;;;19.90;10.70;;;;;;;-4.32;88.95;100244.80;105585;1256;72595;-78
2023/12/04 05:01:58;;;;;;;16.30;9.90;;;;;;;-4.38;89.15;100241.42;105670;1253;61472;-77
2023/12/04 05:04:25;;;;;;;15.90;9.10;;;;;;;-4.45;89.26;100240.98;105616;1258;60529;-75
2023/12/04 05:06:53;;;;;;;15.50;8.80;;;;;;;-4.39;89.14;100242.30;105730;1258;73939;-75
2023/12/04 05:09:20;;;;;;;14.80;9.20;;;;;;;-4.29;88.83;100246.08;105743;1253;69526;-76
2023/12/04 05:11:48;;;;;;;14.70;9.10;;;;;;;-4.31;88.88;100253.21;105705;1255;71524;-76
2023/12/04 05:14:15;;;;;;;13.10;8.90;;;;;;;-4.36;89.20;100258.09;105806;1256;60550;-75
2023/12/04 05:16:43;;;;;;;17.60;9.80;;;;;;;-4.41;89.25;100266.95;105734;1254;60514;-75
2023/12/04 05:19:10;;;;;;;14.80;9.30;;;;;;;-4.33;89.26;100272.67;106858;1258;73879;-79
2023/12/04 05:21:38;;;;;;;15.70;9.30;;;;;;;-4.26;89.05;100269.29;107956;1259;68723;-77
2023/12/04 05:24:06;;;;;;;17.20;9.70;;;;;;;-4.30;89.25;100272.06;106303;1258;75074;-76
2023/12/04 05:26:33;;;;;;;15.90;10.40;;;;;;;-4.34;89.75;100273.25;106836;1256;60541;-77
2023/12/04 05:29:01;;;;;;;14.60;9.60;;;;;;;-4.37;90.06;100271.44;106574;1261;60573;-77
2023/12/04 05:31:29;;;;;;;15.60;10.10;;;;;;;-4.28;90.03;100272.47;105726;1254;72967;-77
2023/12/04 05:33:56;;;;;;;15.30;10.00;;;;;;;-4.18;89.70;100276.22;105571;1261;72771;-76
2023/12/04 05:36:24;;;;;;;16.40;10.40;;;;;;;-4.19;90.04;100275.73;105509;1256;71571;-78
2023/12/04 05:38:53;;;;;;;17.20;10.10;;;;;;;-4.21;90.53;100271.86;105619;1255;60463;-77
2023/12/04 05:41:23;;;;;;;20.10;11.50;;;;;;;-4.21;90.83;100274.46;105694;1260;60952;-76
2023/12/04 05:43:51;;;;;;;17.70;9.90;;;;;;;-4.14;90.90;100280.23;105627;1256;72696;-79
2023/12/04 05:46:18;;;;;;;18.20;10.90;;;;;;;-4.01;90.44;100287.98;105596;1256;69936;-78
2023/12/04 05:48:46;;;;;;;18.30;10.70;;;;;;;-3.99;90.48;100291.71;105536;1258;71535;-78
2023/12/04 05:51:15;;;;;;;23.20;12.50;;;;;;;-4.02;90.75;100294.97;105656;1255;60647;-77
2023/12/04 05:53:43;;;;;;;31.40;14.50;;;;;;;-4.04;90.95;100299.05;105621;1260;61037;-76
2023/12/04 05:56:10;;;;;;;23.50;12.50;;;;;;;-4.03;91.45;100299.70;105551;1255;72694;-75
2023/12/04 05:58:38;;;;;;;18.90;10.50;;;;;;;-3.89;91.38;100300.87;105632;1255;69959;-78
2023/12/04 06:01:06;;;;;;;17.50;10.30;;;;;;;-3.77;91.11;100298.77;105550;1255;71519;-78
2023/12/04 06:03:34;;;;;;;22.00;11.60;;;;;;;-3.78;91.17;100294.52;105730;1257;60561;-79
2023/12/04 06:06:01;;;;;;;23.60;12.60;;;;;;;-3.83;91.49;100293.86;105884;1255;60560;-75
2023/12/04 06:08:32;;;;;;;47.20;21.30;;;;;;;-3.80;91.53;100295.10;105698;1261;73839;-80
2023/12/04 06:10:59;;;;;;;54.20;22.60;;;;;;;-3.65;91.44;100298.98;105793;1256;70126;-78
2023/12/04 06:13:27;;;;;;;57.00;24.50;;;;;;;-3.64;91.41;100299.80;106120;1255;71064;-76
2023/12/04 06:15:54;;;;;;;42.00;20.80;;;;;;;-3.66;91.88;100299.05;105751;1255;60521;-79
2023/12/04 06:18:22;;;;;;;36.10;15.60;;;;;;;-3.65;92.20;100296.94;105689;1255;60357;-79
2023/12/04 06:20:52;;;;;;;34.00;15.20;;;;;;;-3.55;92.08;100298.41;105830;1255;73839;-79
2023/12/04 06:23:20;;;;;;;24.10;13.70;;;;;;;-3.42;91.76;100299.25;106125;1260;69339;-79
2023/12/04 06:25:47;;;;;;;27.00;15.20;;;;;;;-3.40;91.75;100302.41;106011;1254;72743;-78
2023/12/04 06:28:16;;;;;;;26.70;14.20;;;;;;;-3.44;91.90;100302.27;105981;1255;60455;-80
2023/12/04 06:30:44;;;;;;;31.20;14.00;;;;;;;-3.48;92.02;100299.85;105678;1256;60598;-79
2023/12/04 06:33:14;;;;;;;26.00;13.10;;;;;;;-3.44;92.12;100303.65;105731;1258;72673;-79
2023/12/04 06:35:42;;;;;;;28.00;14.90;;;;;;;-3.30;91.76;100306.55;105682;1261;71207;-78
2023/12/04 06:38:13;;;;;;;26.90;15.20;;;;;;;-3.28;91.72;100310.08;105769;1256;71384;-78
2023/12/04 06:40:40;;;;;;;30.20;15.20;;;;;;;-3.35;91.67;100312.63;105784;1258;60501;-80
2023/12/04 06:43:08;;;;;;;29.70;14.70;;;;;;;-3.38;91.71;100312.90;105874;1256;60458;-78
2023/12/04 06:45:36;;;;;;;24.40;13.80;;;;;;;-3.28;91.63;100315.47;105748;1254;72608;-77
2023/12/04 06:48:05;;;;;;;30.40;16.80;;;;;;;-3.26;91.71;100316.40;105864;1256;70457;-79
2023/12/04 06:50:32;;;;;;;28.50;16.60;;;;;;;-3.30;91.84;100322.30;106571;1254;72450;-78
2023/12/04 06:53:00;;;;;;;27.50;13.90;;;;;;;-3.31;91.78;100320.11;108703;1256;60524;-79
2023/12/04 06:55:27;;;;;;;28.00;15.80;;;;;;;-3.21;91.62;100325.02;107379;1256;60331;-81
2023/12/04 06:57:55;;;;;;;29.30;15.70;;;;;;;-3.19;91.51;100326.81;106544;1255;72610;-77
2023/12/04 07:00:22;;;;;;;30.90;15.10;;;;;;;-3.23;91.81;100331.50;106084;1256;69844;-80
2023/12/04 07:02:50;;;;;;;31.30;16.90;;;;;;;-3.24;91.80;100328.09;106237;1255;73751;-80
2023/12/04 07:05:19;;;;;;;30.40;18.20;;;;;;;-3.13;91.49;100333.67;106046;1256;60296;-79
2023/12/04 07:07:47;;;;;;;27.40;16.20;;;;;;;-3.10;91.57;100330.62;107494;1256;60544;-80
2023/12/04 07:10:15;;;;;;;28.00;15.60;;;;;;;-3.12;92.01;100333.81;106621;1257;71613;-79
2023/12/04 07:12:44;;;;;;;33.30;16.80;;;;;;;-3.08;91.79;100335.73;105876;1253;70121;-78
2023/12/04 07:15:11;;;;;;;27.90;16.20;;;;;;;-2.96;91.53;100332.96;105741;1254;72879;-79
2023/12/04 07:17:40;;;;;;;27.10;16.00;;;;;;;-2.94;91.31;100333.55;105835;1256;60422;-80
2023/12/04 07:20:11;;;;;;;28.40;15.80;;;;;;;-2.99;91.43;100334.78;105905;1256;62081;-80
2023/12/04 07:22:39;;;;;;;25.20;14.50;;;;;;;-2.98;91.42;100337.70;106028;1261;73824;-79
2023/12/04 07:25:08;;;;;;;21.30;13.80;;;;;;;-2.85;91.13;100335.73;106118;1255;68603;-78
2023/12/04 07:27:35;;;;;;;25.60;15.60;;;;;;;-2.81;90.80;100337.98;106164;1256;71482;-79
2023/12/04 07:30:04;;;;;;;32.90;17.60;;;;;;;-2.85;91.01;100338.35;106397;1256;60467;-80
2023/12/04 07:32:32;;;;;;;28.00;15.30;;;;;;;-2.86;91.04;100338.58;106023;1256;296893;-81
2023/12/04 07:37:59;;;;;;;26.10;17.40;;;;;;;-2.63;90.17;100334.10;103749;1291;599747;-80
2023/12/04 07:40:27;;;;;;;30.50;19.00;;;;;;;-2.65;90.37;100339.73;107320;1269;59709;-78
2023/12/04 07:42:54;;;;;;;27.60;16.20;;;;;;;-2.66;90.28;100335.96;107993;1266;58745;-81
2023/12/04 07:45:23;;;;;;;26.40;15.10;;;;;;;-2.61;90.59;100335.20;106861;1267;72223;-82
2023/12/04 07:47:51;;;;;;;38.50;21.30;;;;;;;-2.41;90.22;100334.48;106506;1266;68906;-81
2023/12/04 07:50:19;;;;;;;45.70;25.40;;;;;;;-2.27;89.80;100338.32;107673;1253;70106;-82
2023/12/04 07:52:46;;;;;;;46.30;24.50;;;;;;;-2.25;89.69;100340.80;107597;1257;159417;-81
2023/12/04 07:55:14;;;;;;;62.30;25.40;;;;;;;-2.23;89.78;100338.46;107878;1251;59351;-81
2023/12/04 07:57:42;;;;;;;43.60;20.80;;;;;;;-2.15;89.60;100341.42;107251;1254;71190;-80
2023/12/04 08:00:10;;;;;;;36.80;18.80;;;;;;;-1.98;89.30;100339.23;106329;1253;67734;-80
2023/12/04 08:02:38;;;;;;;24.90;15.60;;;;;;;-1.86;89.04;100341.60;106322;1253;73085;-80
2023/12/04 08:05:06;;;;;;;27.00;15.40;;;;;;;-1.82;88.87;100342.26;106147;1258;59743;-81
2023/12/04 08:07:35;;;;;;;31.80;17.40;;;;;;;-1.82;88.48;100345.89;106204;1256;60357;-81
2023/12/04 08:10:04;;;;;;;27.60;15.90;;;;;;;-1.77;87.98;100352.96;106993;1257;73147;-78
2023/12/04 08:12:33;;;;;;;24.80;14.80;;;;;;;-1.66;87.10;100356.07;106824;1253;69037;-78
2023/12/04 08:15:03;;;;;;;23.80;15.50;;;;;;;-1.62;86.94;100356.59;106285;1251;72777;-81
2023/12/04 08:17:31;;;;;;;24.60;15.40;;;;;;;-1.66;86.99;100357.13;106517;1250;59592;-81
2023/12/04 08:20:00;;;;;;;26.30;15.50;;;;;;;-1.70;86.89;100359.59;106563;1250;59723;-82
2023/12/04 08:22:28;;;;;;;20.20;13.40;;;;;;;-1.71;86.83;100360.84;106847;1250;71910;-80
2023/12/04 08:24:56;;;;;;;25.80;15.90;;;;;;;-1.63;86.07;100360.44;108478;1250;69188;-82
2023/12/04 08:27:24;;;;;;;24.00;16.10;;;;;;;-1.65;85.89;100358.81;108562;1250;71496;-79
2023/12/04 08:29:51;;;;;;;28.50;16.50;;;;;;;-1.71;85.98;100361.69;107696;1250;60460;-81
2023/12/04 08:32:21;;;;;;;23.60;15.40;;;;;;;-1.75;86.32;100367.45;106754;1251;61101;-82
2023/12/04 08:34:51;;;;;;;23.80;15.20;;;;;;;-1.65;86.33;100362.79;106591;1250;71772;-79
2023/12/04 08:37:19;;;;;;;24.20;14.40;;;;;;;-1.61;86.11;100366.23;106891;1253;69673;-81
2023/12/04 08:39:47;;;;;;;28.70;16.80;;;;;;;-1.65;86.00;100363.31;106478;1254;72662;-80
2023/12/04 08:42:14;;;;;;;26.30;15.60;;;;;;;-1.65;86.04;100366.98;107264;1256;59499;-81
2023/12/04 08:44:50;;;;;;;33.60;18.40;;;;;;;-1.60;85.69;100362.05;106933;1254;60043;-81
2023/12/04 08:47:18;;;;;;;33.80;18.50;;;;;;;-1.50;85.61;100356.34;106350;1260;72982;-82
2023/12/04 08:49:46;;;;;;;29.70;17.30;;;;;;;-1.51;85.60;100361.41;107208;1253;71101;-84
2023/12/04 08:52:16;;;;;;;30.90;18.10;;;;;;;-1.55;85.22;100355.69;106797;1253;71705;-81
2023/12/04 08:54:44;;;;;;;31.10;16.90;;;;;;;-1.62;85.37;100354.69;106637;1254;61927;-81
2023/12/04 08:57:12;;;;;;;28.20;16.30;;;;;;;-1.55;85.62;100354.48;106352;1253;59964;-84
2023/12/04 08:59:40;;;;;;;28.90;17.70;;;;;;;-1.50;85.69;100349.89;106763;1253;73052;-82
2023/12/04 09:02:10;;;;;;;31.30;17.90;;;;;;;-1.56;85.46;100347.06;106783;1260;70198;-81
2023/12/04 09:04:41;;;;;;;;;;;;;;;-1.60;85.68;100346.21;107055;1253;71443;-78
2023/12/04 09:07:10;;;;;;;30.70;18.50;;;;;;;-1.52;85.69;100350.71;106755;1252;61588;-81
2023/12/04 09:09:59;;;;;;;30.00;19.50;;;;;;;-1.49;85.86;100343.09;107149;1253;59659;-81
2023/12/04 09:12:36;;;;;;;33.20;19.60;;;;;;;-1.52;86.26;100341.32;107093;1252;71875;-82
2023/12/04 09:15:05;;;;;;;29.20;18.30;;;;;;;-1.52;86.32;100342.04;107827;1255;69083;-82
2023/12/04 09:17:37;;;;;;;33.80;19.40;;;;;;;-1.50;86.09;100338.83;107030;1255;71549;-81
2023/12/04 09:20:06;;;;;;;40.40;21.90;;;;;;;-1.35;86.00;100339.09;107023;1258;59675;-80
2023/12/04 09:22:37;;;;;;;36.80;20.60;;;;;;;-1.33;85.92;100339.33;106866;1253;59791;-81
2023/12/04 09:25:20;;;;;;;32.60;20.10;;;;;;;-1.40;85.81;100334.09;106422;1257;73036;-82
2023/12/04 09:27:49;;;;;;;30.40;16.90;;;;;;;-1.44;86.02;100333.61;106224;1253;72566;-82
2023/12/04 09:30:17;;;;;;;33.00;18.50;;;;;;;-1.43;85.66;100332.86;106494;1253;71047;-80
2023/12/04 09:32:45;;;;;;;28.50;18.10;;;;;;;-1.34;85.61;100336.60;106331;1253;60116;-80
2023/12/04 09:35:13;;;;;;;30.30;19.30;;;;;;;-1.32;85.07;100342.27;106444;1253;59747;-80
2023/12/04 09:37:41;;;;;;;33.30;21.00;;;;;;;-1.41;85.14;100341.98;106242;1254;73152;-81
2023/12/04 09:40:10;;;;;;;26.20;15.60;;;;;;;-1.48;85.29;100339.21;106575;1253;70582;-81
2023/12/04 09:42:38;;;;;;;27.50;15.60;;;;;;;-1.52;84.99;100346.51;106383;1253;74132;-81
2023/12/04 09:45:08;;;;;;;24.20;15.10;;;;;;;-1.45;84.23;100350.18;107304;1253;60879;-78
2023/12/04 09:47:37;;;;;;;23.60;14.50;;;;;;;-1.44;83.70;100349.09;107201;1253;60044;-82
2023/12/04 09:50:07;;;;;;;23.40;14.30;;;;;;;-1.51;83.96;100349.08;107059;1253;73044;-81
2023/12/04 09:52:37;;;;;;;23.20;16.00;;;;;;;-1.59;83.53;100349.98;108323;1253;68788;-80
2023/12/04 09:55:06;;;;;;;19.60;12.40;;;;;;;-1.60;83.42;100351.79;107372;1253;73427;-79
2023/12/04 09:57:34;;;;;;;23.70;13.30;;;;;;;-1.51;82.62;100348.72;107654;1253;61342;-80
2023/12/04 10:00:04;;;;;;;27.10;15.00;;;;;;;-1.44;81.44;100352.70;108627;1253;58817;-81
2023/12/04 10:02:41;;;;;;;14.70;10.50;;;;;;;-1.44;80.50;100354.14;106983;1257;73690;-81
2023/12/04 10:05:10;;;;;;;15.60;8.80;;;;;;;-1.46;78.40;100351.59;106529;1254;68626;-81
2023/12/04 10:07:40;;;;;;;11.10;7.40;;;;;;;-1.46;77.22;100352.30;106277;1258;70508;-80
2023/12/04 10:10:08;;;;;;;10.20;7.00;;;;;;;-1.45;75.67;100353.31;106220;1254;59809;-79
2023/12/04 10:12:37;;;;;;;10.50;6.60;;;;;;;-1.34;74.98;100350.00;106158;1258;60461;-79
2023/12/04 10:15:12;;;;;;;10.10;6.80;;;;;;;-0.73;75.61;100352.55;106015;1253;73131;-80
2023/12/04 10:17:41;;;;;;;8.80;6.30;;;;;;;-0.00;73.89;100344.29;108293;1253;69304;-84
2023/12/04 10:20:17;;;;;;;9.80;6.50;;;;;;;0.21;72.13;100343.63;107079;1253;72564;-83
2023/12/04 10:23:04;;;;;;;8.90;5.80;;;;;;;0.07;68.69;100360.79;106721;1253;61548;-83
2023/12/04 10:25:32;;;;;;;7.70;6.00;;;;;;;-0.31;67.25;100351.52;106436;1253;59747;-84
2023/12/04 10:28:11;;;;;;;7.60;5.50;;;;;;;-0.63;67.79;100360.73;106844;1253;73364;-84
2023/12/04 10:30:39;;;;;;;7.80;5.80;;;;;;;-0.89;67.70;100355.85;106268;1258;68902;-82
2023/12/04 10:33:07;;;;;;;21.00;8.50;;;;;;;-1.09;68.47;100357.73;106101;1254;73052;-82
2023/12/04 10:35:36;;;;;;;18.60;8.80;;;;;;;-1.23;69.33;100357.22;106182;1260;59741;-83
2023/12/04 10:38:05;;;;;;;12.60;6.40;;;;;;;-1.32;70.22;100357.33;106211;1253;60591;-78
2023/12/04 10:40:34;;;;;;;14.30;8.10;;;;;;;-1.34;70.78;100356.40;106085;1257;74918;-76
2023/12/04 10:43:14;;;;;;;11.70;7.50;;;;;;;-1.26;70.50;100361.39;106035;1259;69308;-78
2023/12/04 10:45:43;;;;;;;13.70;7.80;;;;;;;-1.33;71.12;100359.82;106137;1254;71235;-79
2023/12/04 10:48:12;;;;;;;12.10;8.30;;;;;;;-1.40;71.83;100361.57;106235;1260;60064;-75
2023/12/04 10:50:45;;;;;;;11.30;7.70;;;;;;;-1.08;71.55;100364.50;106706;1257;60992;-79
2023/12/04 10:53:13;;;;;;;10.70;8.40;;;;;;;-0.35;70.43;100359.09;106387;1258;72761;-76
2023/12/04 10:55:41;;;;;;;10.10;8.20;;;;;;;0.24;69.48;100353.02;106637;1253;68466;-87
2023/12/04 10:58:12;;;;;;;11.50;7.90;;;;;;;0.59;69.00;100350.15;107848;1251;72298;-86
2023/12/04 11:00:45;;;;;;;8.70;6.70;;;;;;;0.82;67.59;100354.02;107946;1253;60148;-85
2023/12/04 11:03:22;;;;;;;12.30;7.90;;;;;;;0.94;66.42;100350.14;106891;1253;60094;-85
2023/12/04 11:05:56;;;;;;;9.70;7.00;;;;;;;1.02;65.94;100353.56;106917;1253;71855;-83
2023/12/04 11:08:24;;;;;;;8.50;6.20;;;;;;;0.98;66.14;100349.96;106784;1253;69176;-82
2023/12/04 11:10:56;;;;;;;8.50;5.80;;;;;;;0.93;66.15;100357.21;106684;1254;73513;-84
2023/12/04 11:13:31;;;;;;;7.90;5.90;;;;;;;0.87;65.19;100358.30;106601;1255;59728;-85
2023/12/04 11:16:15;;;;;;;6.50;5.00;;;;;;;0.85;65.02;100360.30;106327;1257;59656;-85